65992 UUMU-UWGG
Flight info
| Callsign | 65992 |
|---|---|
| Flight time | 0h 43m |
| Altitude | 31000 |
| Route | LUPTE MOLZI KOGOM L94 USTOK |
| Aircraft | T134/M-SDE3GHIJ2J3J5M1RVWXYZ/LB2D1 |
Departure
| Time | 2026-04-15 14:21 |
|---|---|
| Airport | Chkalovskiy Air Base (UUMU) |
Arrival
| Time | 2026-04-15 15:05 |
|---|---|
| Airport | Nizhny Novgorod / Strigino International Airport (UWGG) |
| Time | Latitude | Longitude | Altitude | Speed | Heading |
|---|---|---|---|---|---|
| 2026-04-15 14:17 | 55.88936 | 38.04408 | 507 ft | 16 kts | 315° |
| 2026-04-15 14:18 | 55.88995 | 38.04246 | 507 ft | 12 kts | 248° |
| 2026-04-15 14:18 | 55.88912 | 38.04243 | 507 ft | 14 kts | 185° |
| 2026-04-15 14:18 | 55.88804 | 38.04207 | 507 ft | 16 kts | 191° |
| 2026-04-15 14:18 | 55.88686 | 38.04184 | 507 ft | 18 kts | 167° |
| 2026-04-15 14:19 | 55.88614 | 38.04314 | 507 ft | 14 kts | 130° |
| 2026-04-15 14:19 | 55.88603 | 38.04337 | 507 ft | 0 kts | 131° |
| 2026-04-15 14:20 | 55.88526 | 38.04497 | 507 ft | 54 kts | 130° |
| 2026-04-15 14:20 | 55.88319 | 38.04930 | 507 ft | 99 kts | 129° |
| 2026-04-15 14:21 | 55.87723 | 38.06171 | 509 ft | 159 kts | 129° |
| 2026-04-15 14:21 | 55.86940 | 38.07659 | 922 ft | 181 kts | 133° |
| 2026-04-15 14:21 | 55.85967 | 38.09249 | 1423 ft | 196 kts | 136° |
| 2026-04-15 14:21 | 55.84846 | 38.10839 | 1747 ft | 210 kts | 141° |
| 2026-04-15 14:22 | 55.83565 | 38.12398 | 2224 ft | 235 kts | 142° |
| 2026-04-15 14:22 | 55.82132 | 38.14056 | 2660 ft | 247 kts | 142° |
| 2026-04-15 14:22 | 55.81050 | 38.15459 | 4661 ft | 161 kts | 128° |
| 2026-04-15 14:22 | 55.80480 | 38.17195 | 4642 ft | 191 kts | 104° |
| 2026-04-15 14:23 | 55.80486 | 38.19552 | 5255 ft | 186 kts | 89° |
| 2026-04-15 14:23 | 55.80352 | 38.21735 | 5634 ft | 197 kts | 108° |
| 2026-04-15 14:23 | 55.79964 | 38.24327 | 5490 ft | 232 kts | 103° |
| 2026-04-15 14:23 | 55.79620 | 38.27087 | 6224 ft | 227 kts | 108° |
| 2026-04-15 14:24 | 55.79182 | 38.29694 | 7082 ft | 217 kts | 105° |
| 2026-04-15 14:24 | 55.78822 | 38.32203 | 7869 ft | 208 kts | 108° |
| 2026-04-15 14:24 | 55.78458 | 38.34648 | 8526 ft | 206 kts | 105° |
| 2026-04-15 14:24 | 55.78094 | 38.37106 | 9159 ft | 205 kts | 107° |
| 2026-04-15 14:25 | 55.77743 | 38.39516 | 9764 ft | 204 kts | 106° |
| 2026-04-15 14:25 | 55.77380 | 38.41972 | 10378 ft | 204 kts | 106° |
| 2026-04-15 14:25 | 55.77024 | 38.44398 | 10905 ft | 206 kts | 106° |
| 2026-04-15 14:25 | 55.76659 | 38.46875 | 11443 ft | 209 kts | 106° |
| 2026-04-15 14:26 | 55.76294 | 38.49342 | 11969 ft | 210 kts | 107° |
| 2026-04-15 14:26 | 55.75922 | 38.51864 | 12502 ft | 212 kts | 105° |
| 2026-04-15 14:26 | 55.75547 | 38.54398 | 13030 ft | 214 kts | 107° |
| 2026-04-15 14:26 | 55.75400 | 38.57039 | 13570 ft | 223 kts | 83° |
| 2026-04-15 14:27 | 55.75979 | 38.59628 | 14133 ft | 235 kts | 60° |
| 2026-04-15 14:27 | 55.77040 | 38.61888 | 14703 ft | 239 kts | 59° |
| 2026-04-15 14:27 | 55.78007 | 38.64315 | 15204 ft | 245 kts | 59° |
| 2026-04-15 14:27 | 55.79000 | 38.66781 | 15720 ft | 249 kts | 62° |
| 2026-04-15 14:28 | 55.79990 | 38.69308 | 16249 ft | 253 kts | 60° |
| 2026-04-15 14:28 | 55.80998 | 38.71901 | 16823 ft | 256 kts | 61° |
| 2026-04-15 14:28 | 55.82004 | 38.74465 | 17387 ft | 258 kts | 61° |
| 2026-04-15 14:28 | 55.83031 | 38.77112 | 17958 ft | 260 kts | 60° |
| 2026-04-15 14:29 | 55.84054 | 38.79737 | 18525 ft | 262 kts | 61° |
| 2026-04-15 14:29 | 55.85094 | 38.82414 | 19108 ft | 263 kts | 60° |
| 2026-04-15 14:29 | 55.86125 | 38.85071 | 19689 ft | 264 kts | 60° |
| 2026-04-15 14:29 | 55.87172 | 38.87773 | 20275 ft | 265 kts | 60° |
| 2026-04-15 14:30 | 55.88202 | 38.90432 | 20849 ft | 265 kts | 60° |
| 2026-04-15 14:30 | 55.89250 | 38.93114 | 21429 ft | 265 kts | 59° |
| 2026-04-15 14:30 | 55.90307 | 38.95803 | 22000 ft | 265 kts | 59° |
| 2026-04-15 14:30 | 55.91356 | 38.98483 | 22556 ft | 265 kts | 59° |
| 2026-04-15 14:31 | 55.92395 | 39.01161 | 23109 ft | 265 kts | 59° |
| 2026-04-15 14:31 | 55.93449 | 39.03886 | 23664 ft | 265 kts | 59° |
| 2026-04-15 14:31 | 55.94485 | 39.06567 | 24206 ft | 264 kts | 59° |
| 2026-04-15 14:31 | 55.95512 | 39.09238 | 24731 ft | 265 kts | 59° |
| 2026-04-15 14:32 | 55.96411 | 39.12089 | 25236 ft | 260 kts | 76° |
| 2026-04-15 14:32 | 55.96673 | 39.15218 | 25712 ft | 258 kts | 88° |
| 2026-04-15 14:32 | 55.96837 | 39.18416 | 26176 ft | 259 kts | 85° |
| 2026-04-15 14:32 | 55.97002 | 39.21564 | 26618 ft | 260 kts | 86° |
| 2026-04-15 14:33 | 55.97178 | 39.24807 | 27063 ft | 261 kts | 85° |
| 2026-04-15 14:33 | 55.97348 | 39.28000 | 27485 ft | 262 kts | 85° |
| 2026-04-15 14:33 | 55.97522 | 39.31213 | 27901 ft | 263 kts | 85° |
| 2026-04-15 14:33 | 55.97698 | 39.34502 | 28318 ft | 264 kts | 85° |
| 2026-04-15 14:34 | 55.97871 | 39.37753 | 28719 ft | 265 kts | 85° |
| 2026-04-15 14:34 | 55.98046 | 39.41026 | 29109 ft | 264 kts | 85° |
| 2026-04-15 14:34 | 55.98217 | 39.44263 | 29461 ft | 263 kts | 85° |
| 2026-04-15 14:34 | 55.98390 | 39.47532 | 29792 ft | 263 kts | 85° |
| 2026-04-15 14:35 | 55.98561 | 39.50799 | 30103 ft | 262 kts | 85° |
| 2026-04-15 14:35 | 55.98729 | 39.54007 | 30393 ft | 262 kts | 85° |
| 2026-04-15 14:35 | 55.98901 | 39.57317 | 30682 ft | 263 kts | 85° |
| 2026-04-15 14:35 | 55.99068 | 39.60554 | 30902 ft | 265 kts | 85° |
| 2026-04-15 14:36 | 55.99239 | 39.63906 | 30876 ft | 277 kts | 85° |
| 2026-04-15 14:36 | 55.99558 | 39.67404 | 30879 ft | 285 kts | 70° |
| 2026-04-15 14:36 | 56.00476 | 39.70564 | 30911 ft | 294 kts | 61° |
| 2026-04-15 14:37 | 56.02501 | 39.77222 | 30887 ft | 315 kts | 63° |
| 2026-04-15 14:37 | 56.04617 | 39.84348 | 30889 ft | 335 kts | 63° |
| 2026-04-15 14:37 | 56.05722 | 39.88090 | 30894 ft | 346 kts | 63° |
| 2026-04-15 14:38 | 56.06858 | 39.91941 | 30889 ft | 356 kts | 63° |
| 2026-04-15 14:38 | 56.09223 | 39.99984 | 30890 ft | 376 kts | 63° |
| 2026-04-15 14:39 | 56.11716 | 40.08495 | 30898 ft | 395 kts | 63° |
| 2026-04-15 14:39 | 56.14306 | 40.17372 | 30901 ft | 410 kts | 62° |
| 2026-04-15 14:40 | 56.16984 | 40.26581 | 30897 ft | 423 kts | 62° |
| 2026-04-15 14:40 | 56.19723 | 40.36047 | 30901 ft | 434 kts | 62° |
| 2026-04-15 14:41 | 56.22517 | 40.45737 | 30901 ft | 442 kts | 62° |
| 2026-04-15 14:41 | 56.25335 | 40.55664 | 30899 ft | 444 kts | 66° |
| 2026-04-15 14:41 | 56.26191 | 40.60911 | 30914 ft | 436 kts | 81° |
| 2026-04-15 14:42 | 56.26359 | 40.66246 | 30907 ft | 430 kts | 93° |
| 2026-04-15 14:42 | 56.25900 | 40.76825 | 30898 ft | 417 kts | 95° |
| 2026-04-15 14:43 | 56.25470 | 40.87039 | 30903 ft | 408 kts | 94° |
| 2026-04-15 14:43 | 56.25049 | 40.97172 | 30908 ft | 400 kts | 94° |
| 2026-04-15 14:44 | 56.24631 | 41.07037 | 30909 ft | 394 kts | 94° |
| 2026-04-15 14:44 | 56.24210 | 41.16773 | 30911 ft | 389 kts | 94° |
| 2026-04-15 14:45 | 56.23786 | 41.26393 | 30913 ft | 385 kts | 94° |
| 2026-04-15 14:45 | 56.23361 | 41.35898 | 30917 ft | 381 kts | 93° |
| 2026-04-15 14:46 | 56.22928 | 41.45402 | 30918 ft | 378 kts | 93° |
| 2026-04-15 14:46 | 56.22494 | 41.54758 | 30916 ft | 375 kts | 93° |
| 2026-04-15 14:47 | 56.22060 | 41.64001 | 30916 ft | 372 kts | 93° |
| 2026-04-15 14:47 | 56.21616 | 41.73247 | 30923 ft | 369 kts | 94° |
| 2026-04-15 14:48 | 56.21172 | 41.82382 | 30922 ft | 367 kts | 94° |
| 2026-04-15 14:48 | 56.20723 | 41.91512 | 30924 ft | 365 kts | 94° |
| 2026-04-15 14:49 | 56.20271 | 42.00529 | 30927 ft | 363 kts | 94° |
| 2026-04-15 14:49 | 56.19813 | 42.09560 | 30924 ft | 361 kts | 94° |
| 2026-04-15 14:50 | 56.19353 | 42.18482 | 30921 ft | 359 kts | 94° |
| 2026-04-15 14:50 | 56.18888 | 42.27382 | 30922 ft | 357 kts | 94° |
| 2026-04-15 14:51 | 56.18419 | 42.36219 | 30931 ft | 355 kts | 94° |
| 2026-04-15 14:51 | 56.17947 | 42.44986 | 30928 ft | 354 kts | 94° |
| 2026-04-15 14:52 | 56.17469 | 42.53757 | 29761 ft | 376 kts | 94° |
| 2026-04-15 14:52 | 56.17210 | 42.58564 | 26763 ft | 430 kts | 94° |
| 2026-04-15 14:52 | 56.16909 | 42.63954 | 24247 ft | 455 kts | 94° |
| 2026-04-15 14:52 | 56.16594 | 42.69585 | 23046 ft | 444 kts | 95° |
| 2026-04-15 14:53 | 56.16291 | 42.74923 | 22441 ft | 423 kts | 95° |
| 2026-04-15 14:53 | 56.16000 | 42.80064 | 21575 ft | 412 kts | 95° |
| 2026-04-15 14:53 | 56.15713 | 42.85106 | 20702 ft | 402 kts | 95° |
| 2026-04-15 14:53 | 56.15427 | 42.90030 | 19835 ft | 393 kts | 95° |
| 2026-04-15 14:54 | 56.15042 | 42.94827 | 18985 ft | 385 kts | 100° |
| 2026-04-15 14:54 | 56.14715 | 42.99528 | 17872 ft | 383 kts | 94° |
| 2026-04-15 14:54 | 56.14389 | 43.04227 | 16757 ft | 380 kts | 97° |
| 2026-04-15 14:54 | 56.14171 | 43.08877 | 15670 ft | 376 kts | 97° |
| 2026-04-15 14:55 | 56.13834 | 43.13459 | 14750 ft | 368 kts | 95° |
| 2026-04-15 14:55 | 56.13473 | 43.17919 | 13833 ft | 361 kts | 101° |
| 2026-04-15 14:55 | 56.12781 | 43.22204 | 12903 ft | 356 kts | 113° |
| 2026-04-15 14:55 | 56.11436 | 43.25882 | 12003 ft | 352 kts | 130° |
| 2026-04-15 14:56 | 56.09578 | 43.28645 | 11097 ft | 350 kts | 147° |
| 2026-04-15 14:56 | 56.07454 | 43.30656 | 10251 ft | 344 kts | 145° |
| 2026-04-15 14:56 | 56.05682 | 43.33384 | 9387 ft | 335 kts | 132° |
| 2026-04-15 14:56 | 56.03931 | 43.36116 | 8522 ft | 330 kts | 138° |
| 2026-04-15 14:57 | 56.02295 | 43.38866 | 7689 ft | 324 kts | 135° |
| 2026-04-15 14:57 | 56.00609 | 43.41409 | 6867 ft | 318 kts | 134° |
| 2026-04-15 14:57 | 55.99137 | 43.44321 | 6032 ft | 312 kts | 121° |
| 2026-04-15 14:57 | 55.98241 | 43.47780 | 5128 ft | 307 kts | 104° |
| 2026-04-15 14:58 | 55.97844 | 43.51448 | 4149 ft | 305 kts | 101° |
| 2026-04-15 14:58 | 55.97341 | 43.55089 | 3325 ft | 295 kts | 99° |
| 2026-04-15 14:58 | 55.96956 | 43.58528 | 2928 ft | 277 kts | 103° |
| 2026-04-15 14:58 | 55.96620 | 43.61766 | 2694 ft | 254 kts | 88° |
| 2026-04-15 14:59 | 55.97042 | 43.64687 | 2585 ft | 236 kts | 63° |
| 2026-04-15 14:59 | 55.98069 | 43.66819 | 2575 ft | 220 kts | 40° |
| 2026-04-15 14:59 | 55.99334 | 43.68199 | 2546 ft | 204 kts | 38° |
| 2026-04-15 14:59 | 56.00581 | 43.69356 | 2401 ft | 203 kts | 24° |
| 2026-04-15 15:00 | 56.01923 | 43.70039 | 2267 ft | 198 kts | 22° |
| 2026-04-15 15:00 | 56.03262 | 43.70631 | 2175 ft | 195 kts | 19° |
| 2026-04-15 15:00 | 56.04547 | 43.71205 | 2078 ft | 188 kts | 27° |
| 2026-04-15 15:00 | 56.05725 | 43.72105 | 2013 ft | 182 kts | 28° |
| 2026-04-15 15:01 | 56.06935 | 43.72717 | 1981 ft | 181 kts | 17° |
| 2026-04-15 15:01 | 56.08212 | 43.73030 | 1985 ft | 185 kts | 15° |
| 2026-04-15 15:01 | 56.09486 | 43.73361 | 2080 ft | 184 kts | 16° |
| 2026-04-15 15:01 | 56.10780 | 43.73702 | 2092 ft | 194 kts | 15° |
| 2026-04-15 15:02 | 56.12150 | 43.74078 | 2205 ft | 199 kts | 15° |
| 2026-04-15 15:02 | 56.13480 | 43.74541 | 2416 ft | 190 kts | 23° |
| 2026-04-15 15:02 | 56.14624 | 43.75169 | 2182 ft | 175 kts | 24° |
| 2026-04-15 15:02 | 56.15772 | 43.75773 | 1683 ft | 169 kts | 23° |
| 2026-04-15 15:03 | 56.16871 | 43.76321 | 1326 ft | 162 kts | 20° |
| 2026-04-15 15:03 | 56.17984 | 43.76757 | 1004 ft | 160 kts | 18° |
| 2026-04-15 15:03 | 56.19065 | 43.77157 | 797 ft | 157 kts | 17° |
| 2026-04-15 15:03 | 56.20161 | 43.77557 | 588 ft | 161 kts | 15° |
| 2026-04-15 15:04 | 56.21245 | 43.77938 | 362 ft | 159 kts | 15° |
| 2026-04-15 15:04 | 56.22272 | 43.78315 | 251 ft | 139 kts | 14° |
| 2026-04-15 15:04 | 56.23037 | 43.78598 | 252 ft | 88 kts | 11° |
| 2026-04-15 15:04 | 56.23553 | 43.78784 | 250 ft | 69 kts | 13° |
| 2026-04-15 15:05 | 56.23904 | 43.78931 | 250 ft | 39 kts | 9° |
| 2026-04-15 15:05 | 56.24111 | 43.79057 | 250 ft | 23 kts | 90° |
| 2026-04-15 15:05 | 56.24009 | 43.79259 | 253 ft | 29 kts | 167° |
| 2026-04-15 15:05 | 56.23767 | 43.79245 | 254 ft | 42 kts | 181° |
| 2026-04-15 15:06 | 56.23149 | 43.79086 | 255 ft | 35 kts | 189° |
| 2026-04-15 15:06 | 56.22884 | 43.79025 | 254 ft | 31 kts | 116° |
| 2026-04-15 15:06 | 56.22862 | 43.79116 | 256 ft | 15 kts | 83° |